createdAt,value
2024-02-29T00:01:57.582Z,25.56
2024-02-29T00:04:24.577Z,25.56
2024-02-29T00:06:51.659Z,25.56
2024-02-29T00:09:18.800Z,25.56
2024-02-29T00:11:45.917Z,25.56
2024-02-29T00:14:12.968Z,25.50
2024-02-29T00:16:39.980Z,25.56
2024-02-29T00:19:07.054Z,25.56
2024-02-29T00:21:34.074Z,25.50
2024-02-29T00:24:01.086Z,25.50
2024-02-29T00:26:28.060Z,25.50
2024-02-29T00:28:54.998Z,25.44
2024-02-29T00:31:22.225Z,25.44
2024-02-29T00:33:49.178Z,25.38
2024-02-29T00:36:16.148Z,25.38
2024-02-29T00:38:43.142Z,25.31
2024-02-29T00:41:10.092Z,25.25
2024-02-29T00:43:37.077Z,25.25
2024-02-29T00:46:04.152Z,25.19
2024-02-29T00:48:31.178Z,25.13
2024-02-29T00:50:58.123Z,25.06
2024-02-29T00:53:25.124Z,25.06
2024-02-29T00:55:52.122Z,25.00
2024-02-29T00:58:19.071Z,24.94
2024-02-29T01:00:46.089Z,24.88
2024-02-29T01:03:13.072Z,24.88
2024-02-29T01:05:40.067Z,24.81
2024-02-29T01:08:07.054Z,24.75
2024-02-29T01:10:34.064Z,24.69
2024-02-29T01:13:01.052Z,24.69
2024-02-29T01:15:28.027Z,24.63
2024-02-29T01:17:55.027Z,24.56
2024-02-29T01:20:22.039Z,24.56
2024-02-29T01:22:48.975Z,24.50
2024-02-29T01:25:15.938Z,24.44
2024-02-29T01:27:43.028Z,24.44
2024-02-29T01:30:10.032Z,24.38
2024-02-29T01:32:38.024Z,24.38
2024-02-29T01:35:05.423Z,24.31
2024-02-29T01:37:32.428Z,24.31
2024-02-29T01:39:59.454Z,24.25
2024-02-29T01:42:26.430Z,24.25
2024-02-29T01:44:53.504Z,24.19
2024-02-29T01:47:20.430Z,24.19
2024-02-29T01:49:47.393Z,24.13
2024-02-29T01:52:14.443Z,24.13
2024-02-29T01:54:41.433Z,24.06
2024-02-29T01:57:08.415Z,24.06
2024-02-29T01:59:35.410Z,24.06
2024-02-29T02:02:02.437Z,24.00
2024-02-29T02:04:29.445Z,24.00
2024-02-29T02:06:56.469Z,23.94
2024-02-29T02:09:23.429Z,23.94
2024-02-29T02:11:50.452Z,23.94
2024-02-29T02:14:17.430Z,23.88
2024-02-29T02:16:44.403Z,23.88
2024-02-29T02:19:11.456Z,23.81
2024-02-29T02:21:38.539Z,23.81
2024-02-29T02:24:05.502Z,23.81
2024-02-29T02:26:32.456Z,23.81
2024-02-29T02:28:59.500Z,23.75
2024-02-29T02:31:26.491Z,23.75
2024-02-29T02:33:53.480Z,23.69
2024-02-29T02:36:20.460Z,23.69
2024-02-29T02:38:47.587Z,23.69
2024-02-29T02:41:14.572Z,23.63
2024-02-29T02:43:41.545Z,23.63
2024-02-29T02:46:08.749Z,23.63
2024-02-29T02:48:35.734Z,23.63
2024-02-29T02:51:02.717Z,23.56
2024-02-29T02:53:29.781Z,23.56
2024-02-29T02:55:56.814Z,23.56
2024-02-29T02:58:23.752Z,23.50
2024-02-29T03:00:50.797Z,23.50
2024-02-29T03:03:17.797Z,23.50
2024-02-29T03:05:44.715Z,23.44
2024-02-29T03:08:11.754Z,23.44
2024-02-29T03:10:38.730Z,23.44
2024-02-29T03:13:05.709Z,23.38
2024-02-29T03:15:32.781Z,23.38
2024-02-29T03:18:00.287Z,23.38
2024-02-29T03:20:27.278Z,23.38
2024-02-29T03:22:54.310Z,23.31
2024-02-29T03:25:21.448Z,23.31
2024-02-29T03:27:48.502Z,23.31
2024-02-29T03:30:15.502Z,23.25
2024-02-29T03:32:42.517Z,23.25
2024-02-29T03:35:09.617Z,23.25
2024-02-29T03:37:36.600Z,23.25
2024-02-29T03:40:03.648Z,23.19
2024-02-29T03:42:30.773Z,23.19
2024-02-29T03:44:58.166Z,23.19
2024-02-29T03:47:25.427Z,23.13
2024-02-29T03:49:52.502Z,23.13
2024-02-29T03:52:19.559Z,23.13
2024-02-29T03:54:46.654Z,23.13
2024-02-29T03:57:13.650Z,23.13
2024-02-29T03:59:40.705Z,23.06
2024-02-29T04:02:07.726Z,23.06
2024-02-29T04:04:34.768Z,23.06
2024-02-29T04:07:01.903Z,23.00
2024-02-29T04:09:28.862Z,23.00
2024-02-29T04:11:55.827Z,23.00
2024-02-29T04:14:22.862Z,23.00
2024-02-29T04:16:49.864Z,23.00
2024-02-29T04:19:16.890Z,22.94
2024-02-29T04:21:43.955Z,22.94
2024-02-29T04:24:11.048Z,22.94
2024-02-29T04:26:38.012Z,22.94
2024-02-29T04:29:05.007Z,22.94
2024-02-29T04:31:32.108Z,22.88
2024-02-29T04:33:59.088Z,22.88
2024-02-29T04:36:26.112Z,22.88
2024-02-29T04:38:53.092Z,22.56
2024-02-29T04:41:20.059Z,21.44
2024-02-29T04:43:47.035Z,21.06
2024-02-29T04:46:14.427Z,20.88
2024-02-29T04:48:41.456Z,20.75
2024-02-29T04:51:08.415Z,20.69
2024-02-29T04:53:35.588Z,20.63
2024-02-29T04:56:02.590Z,20.63
2024-02-29T04:58:29.563Z,20.56
2024-02-29T05:00:56.778Z,20.56
2024-02-29T05:03:23.984Z,20.56
2024-02-29T05:05:50.988Z,20.63
2024-02-29T05:08:17.980Z,25.00
2024-02-29T05:10:45.002Z,33.88
2024-02-29T05:13:11.992Z,36.94
2024-02-29T05:15:38.991Z,36.75
2024-02-29T05:18:06.100Z,36.13
2024-02-29T05:20:33.089Z,34.94
2024-02-29T05:23:00.255Z,28.44
2024-02-29T05:25:27.239Z,26.63
2024-02-29T05:27:54.269Z,31.38
2024-02-29T05:30:21.269Z,36.19
2024-02-29T05:32:48.264Z,37.69
2024-02-29T05:35:15.216Z,37.81
2024-02-29T05:37:42.186Z,35.31
2024-02-29T05:40:09.297Z,30.63
2024-02-29T05:42:36.317Z,29.94
2024-02-29T05:45:03.310Z,35.19
2024-02-29T05:47:30.310Z,37.81
2024-02-29T05:49:57.256Z,38.44
2024-02-29T05:52:24.280Z,37.63
2024-02-29T05:54:51.261Z,35.75
2024-02-29T05:57:18.235Z,32.38
2024-02-29T05:59:47.547Z,31.88
2024-02-29T06:02:14.709Z,36.25
2024-02-29T06:04:41.730Z,38.31
2024-02-29T06:07:08.879Z,39.06
2024-02-29T06:09:35.900Z,38.06
2024-02-29T06:12:02.948Z,36.50
2024-02-29T06:14:29.905Z,36.06
2024-02-29T06:16:56.863Z,37.56
2024-02-29T06:19:23.934Z,38.75
2024-02-29T06:21:50.926Z,38.75
2024-02-29T06:24:17.867Z,37.81
2024-02-29T06:26:44.950Z,37.69
2024-02-29T06:29:11.896Z,38.31
2024-02-29T06:31:38.881Z,39.13
2024-02-29T06:34:06.011Z,39.44
2024-02-29T06:36:33.013Z,39.69
2024-02-29T06:38:59.988Z,39.94
2024-02-29T06:41:27.014Z,40.13
2024-02-29T06:43:54.039Z,40.38
2024-02-29T06:46:21.043Z,40.56
2024-02-29T06:48:48.080Z,40.81
2024-02-29T06:51:15.089Z,40.94
2024-02-29T06:53:42.038Z,41.13
2024-02-29T06:56:09.045Z,41.19
2024-02-29T06:58:36.033Z,41.00
2024-02-29T07:01:03.020Z,41.06
2024-02-29T07:03:30.075Z,40.94
2024-02-29T07:05:57.065Z,40.88
2024-02-29T07:08:24.091Z,40.94
2024-02-29T07:10:51.097Z,41.00
2024-02-29T07:13:18.224Z,41.06
2024-02-29T07:15:46.071Z,41.00
2024-02-29T07:18:13.112Z,40.75
2024-02-29T07:20:40.111Z,40.69
2024-02-29T07:23:07.417Z,40.81
2024-02-29T07:25:34.408Z,40.94
2024-02-29T07:28:01.396Z,40.81
2024-02-29T07:30:28.388Z,40.63
2024-02-29T07:32:55.508Z,40.38
2024-02-29T07:35:22.543Z,40.13
2024-02-29T07:37:51.739Z,39.94
2024-02-29T07:40:20.184Z,39.69
2024-02-29T07:42:47.378Z,39.50
2024-02-29T07:45:16.084Z,39.56
2024-02-29T07:47:45.025Z,39.56
2024-02-29T07:50:12.011Z,39.63
2024-02-29T07:52:39.049Z,39.56
2024-02-29T07:55:06.123Z,39.50
2024-02-29T07:57:33.110Z,39.63
2024-02-29T08:00:00.152Z,39.75
2024-02-29T08:02:27.147Z,39.88
2024-02-29T08:04:54.361Z,39.88
2024-02-29T08:07:21.374Z,39.88
2024-02-29T08:09:48.444Z,39.94
2024-02-29T08:12:15.431Z,40.00
2024-02-29T08:14:42.461Z,40.13
2024-02-29T08:17:09.444Z,40.19
2024-02-29T08:19:36.417Z,40.31
2024-02-29T08:22:03.442Z,40.38
2024-02-29T08:24:30.465Z,40.44
2024-02-29T08:26:57.455Z,40.50
2024-02-29T08:29:24.389Z,40.56
2024-02-29T08:31:51.452Z,40.56
2024-02-29T08:34:18.558Z,40.63
2024-02-29T08:36:45.598Z,40.69
2024-02-29T08:39:12.691Z,40.69
2024-02-29T08:41:39.679Z,40.75
2024-02-29T08:44:06.778Z,40.81
2024-02-29T08:46:33.809Z,40.88
2024-02-29T08:49:03.656Z,40.94
2024-02-29T08:51:31.282Z,40.94
2024-02-29T08:53:58.231Z,41.06
2024-02-29T08:56:25.300Z,41.06
2024-02-29T08:58:52.292Z,41.06
2024-02-29T09:01:19.364Z,41.13
2024-02-29T09:03:46.635Z,41.19
2024-02-29T09:06:13.630Z,41.13
2024-02-29T09:08:40.612Z,40.81
2024-02-29T09:11:07.776Z,40.69
2024-02-29T09:13:35.981Z,40.75
2024-02-29T09:16:03.470Z,40.69
2024-02-29T09:18:30.506Z,40.56
2024-02-29T09:20:57.459Z,40.31
2024-02-29T09:23:24.386Z,40.13
2024-02-29T09:25:51.356Z,39.94
2024-02-29T09:28:18.366Z,39.69
2024-02-29T09:30:45.384Z,39.50
2024-02-29T09:33:12.438Z,39.25
2024-02-29T09:35:39.403Z,39.25
2024-02-29T09:38:06.338Z,39.25
2024-02-29T09:40:41.995Z,39.38
2024-02-29T09:43:16.302Z,39.38
2024-02-29T09:45:43.446Z,39.38
2024-02-29T09:48:10.486Z,39.38
2024-02-29T09:50:37.443Z,39.50
2024-02-29T09:53:04.461Z,39.63
2024-02-29T09:55:31.485Z,39.69
2024-02-29T09:57:58.494Z,39.81
2024-02-29T10:00:25.479Z,39.88
2024-02-29T10:02:55.757Z,40.00
2024-02-29T10:05:23.114Z,40.00
2024-02-29T10:07:50.176Z,40.06
2024-02-29T10:10:17.258Z,40.13
2024-02-29T10:12:44.368Z,40.25
2024-02-29T10:15:11.556Z,40.31
2024-02-29T10:17:38.648Z,40.38
2024-02-29T10:20:05.618Z,40.44
2024-02-29T10:22:32.663Z,40.56
2024-02-29T10:24:59.669Z,40.63
2024-02-29T10:27:26.607Z,40.63
2024-02-29T10:29:53.595Z,40.69
2024-02-29T10:32:20.598Z,40.75
2024-02-29T10:34:48.594Z,40.56
2024-02-29T10:37:16.990Z,40.44
2024-02-29T10:39:44.048Z,40.31
2024-02-29T10:42:11.048Z,40.13
2024-02-29T10:44:38.066Z,39.94
2024-02-29T10:47:04.992Z,39.75
2024-02-29T10:49:31.928Z,39.50
2024-02-29T10:51:59.047Z,39.31
2024-02-29T10:54:26.102Z,39.13
2024-02-29T10:56:53.116Z,39.00
2024-02-29T10:59:20.053Z,39.06
2024-02-29T11:01:47.112Z,39.31
2024-02-29T11:04:14.194Z,39.44
2024-02-29T11:06:41.222Z,39.44
2024-02-29T11:09:08.204Z,39.50
2024-02-29T11:11:35.240Z,39.56
2024-02-29T11:14:02.283Z,39.69
2024-02-29T11:16:29.293Z,39.81
2024-02-29T11:18:56.289Z,39.94
2024-02-29T11:21:23.307Z,40.06
2024-02-29T11:23:50.277Z,40.19
2024-02-29T11:26:17.288Z,40.31
2024-02-29T11:28:44.256Z,40.38
2024-02-29T11:31:11.261Z,40.50
2024-02-29T11:33:38.259Z,40.56
2024-02-29T11:36:05.214Z,40.56
2024-02-29T11:38:36.543Z,40.63
2024-02-29T11:41:07.300Z,40.31
2024-02-29T11:43:34.345Z,40.25
2024-02-29T11:46:01.327Z,40.31
2024-02-29T11:48:28.339Z,40.38
2024-02-29T11:50:55.329Z,40.31
2024-02-29T11:53:22.310Z,40.19
2024-02-29T11:55:59.024Z,40.00
2024-02-29T11:58:30.251Z,39.75
2024-02-29T12:00:57.344Z,39.56
2024-02-29T12:03:24.362Z,39.38
2024-02-29T12:05:51.312Z,39.13
2024-02-29T12:08:18.309Z,38.94
2024-02-29T12:10:47.469Z,38.75
2024-02-29T12:13:16.126Z,38.94
2024-02-29T12:15:43.665Z,39.13
2024-02-29T12:18:10.723Z,39.13
2024-02-29T12:20:37.747Z,39.19
2024-02-29T12:23:04.798Z,39.25
2024-02-29T12:25:31.787Z,39.38
2024-02-29T12:27:58.926Z,39.50
2024-02-29T12:30:26.183Z,39.56
2024-02-29T12:32:53.201Z,39.63
2024-02-29T12:35:20.296Z,39.69
2024-02-29T12:37:47.342Z,39.75
2024-02-29T12:40:14.456Z,39.81
2024-02-29T12:42:41.464Z,39.94
2024-02-29T12:45:08.468Z,40.00
2024-02-29T12:47:35.435Z,40.13
2024-02-29T12:50:02.415Z,40.19
2024-02-29T12:52:29.546Z,40.25
2024-02-29T12:54:56.596Z,39.94
2024-02-29T12:57:23.533Z,39.75
2024-02-29T12:59:50.607Z,39.56
2024-02-29T13:02:17.666Z,39.38
2024-02-29T13:04:56.969Z,39.13
2024-02-29T13:07:24.074Z,38.94
2024-02-29T13:09:51.191Z,38.75
2024-02-29T13:12:18.139Z,38.50
2024-02-29T13:14:45.159Z,38.31
2024-02-29T13:17:12.168Z,38.25
2024-02-29T13:19:39.143Z,38.38
2024-02-29T13:22:06.177Z,38.63
2024-02-29T13:24:33.143Z,38.75
2024-02-29T13:27:00.099Z,38.75
2024-02-29T13:29:27.191Z,38.81
2024-02-29T13:31:54.127Z,38.94
2024-02-29T13:34:21.145Z,39.13
2024-02-29T13:36:48.191Z,39.19
2024-02-29T13:39:15.167Z,39.31
2024-02-29T13:41:42.136Z,39.38
2024-02-29T13:44:09.098Z,39.50
2024-02-29T13:46:36.066Z,39.63
2024-02-29T13:49:20.656Z,39.69
2024-02-29T13:51:49.865Z,39.81
2024-02-29T13:54:16.928Z,39.88
2024-02-29T13:56:44.226Z,40.00
2024-02-29T13:59:11.227Z,39.94
2024-02-29T14:01:38.335Z,39.63
2024-02-29T14:04:05.531Z,39.63
2024-02-29T14:06:32.606Z,39.56
2024-02-29T14:08:59.572Z,39.44
2024-02-29T14:11:26.639Z,39.25
2024-02-29T14:13:53.661Z,39.06
2024-02-29T14:16:20.731Z,38.81
2024-02-29T14:18:47.806Z,38.69
2024-02-29T14:21:14.799Z,38.44
2024-02-29T14:23:41.740Z,38.25
2024-02-29T14:26:08.708Z,38.13
2024-02-29T14:28:35.645Z,38.06
2024-02-29T14:31:02.675Z,38.25
2024-02-29T14:33:29.740Z,38.38
2024-02-29T14:35:56.723Z,38.38
2024-02-29T14:38:23.717Z,38.50
2024-02-29T14:40:50.726Z,38.56
2024-02-29T14:43:17.873Z,38.69
2024-02-29T14:45:44.935Z,38.81
2024-02-29T14:48:12.044Z,38.88
2024-02-29T14:50:39.140Z,38.94
2024-02-29T14:53:06.087Z,39.06
2024-02-29T14:55:33.130Z,39.13
2024-02-29T14:58:00.243Z,39.19
2024-02-29T15:00:27.337Z,39.31
2024-02-29T15:02:54.279Z,39.44
2024-02-29T15:05:21.343Z,39.44
2024-02-29T15:07:48.339Z,39.31
2024-02-29T15:10:15.354Z,39.13
2024-02-29T15:12:42.360Z,39.00
2024-02-29T15:15:09.374Z,38.81
2024-02-29T15:17:36.499Z,38.69
2024-02-29T15:20:03.526Z,38.50
2024-02-29T15:22:30.554Z,38.31
2024-02-29T15:24:57.606Z,38.25
2024-02-29T15:27:24.601Z,38.38
2024-02-29T15:29:51.716Z,38.44
2024-02-29T15:32:18.735Z,38.44
2024-02-29T15:34:47.849Z,38.50
2024-02-29T15:37:15.190Z,38.63
2024-02-29T15:39:42.135Z,38.75
2024-02-29T15:42:09.130Z,38.81
2024-02-29T15:44:36.120Z,38.94
2024-02-29T15:47:03.057Z,39.00
2024-02-29T15:49:30.252Z,39.13
2024-02-29T15:51:57.306Z,39.25
2024-02-29T15:54:24.289Z,39.31
2024-02-29T15:56:51.284Z,39.38
2024-02-29T15:59:18.247Z,39.50
2024-02-29T16:01:45.231Z,39.50
2024-02-29T16:04:12.230Z,39.44
2024-02-29T16:06:39.269Z,39.25
2024-02-29T16:09:06.284Z,39.06
2024-02-29T16:11:33.312Z,38.94
2024-02-29T16:14:00.325Z,38.75
2024-02-29T16:16:27.404Z,38.63
2024-02-29T16:18:54.617Z,38.44
2024-02-29T16:21:21.621Z,38.38
2024-02-29T16:23:48.574Z,38.50
2024-02-29T16:26:15.526Z,38.56
2024-02-29T16:28:42.451Z,38.56
2024-02-29T16:31:09.490Z,38.63
2024-02-29T16:33:37.147Z,38.69
2024-02-29T16:36:04.125Z,38.75
2024-02-29T16:38:31.079Z,38.94
2024-02-29T16:40:58.139Z,39.00
2024-02-29T16:43:25.334Z,39.13
2024-02-29T16:45:52.445Z,39.19
2024-02-29T16:48:19.468Z,39.31
2024-02-29T16:50:46.632Z,39.38
2024-02-29T16:53:13.608Z,39.50
2024-02-29T16:55:40.632Z,39.50
2024-02-29T16:58:07.774Z,39.44
2024-02-29T17:00:34.739Z,39.31
2024-02-29T17:03:01.728Z,39.13
2024-02-29T17:05:28.814Z,38.94
2024-02-29T17:07:55.756Z,38.81
2024-02-29T17:10:22.806Z,38.63
2024-02-29T17:12:49.857Z,38.44
2024-02-29T17:15:16.846Z,38.31
2024-02-29T17:17:43.823Z,38.25
2024-02-29T17:20:10.850Z,38.25
2024-02-29T17:22:37.826Z,38.38
2024-02-29T17:25:05.033Z,38.44
2024-02-29T17:27:32.068Z,38.50
2024-02-29T17:29:58.997Z,38.56
2024-02-29T17:32:25.981Z,38.69
2024-02-29T17:34:52.904Z,38.75
2024-02-29T17:37:21.951Z,38.81
2024-02-29T17:39:49.971Z,38.88
2024-02-29T17:42:16.980Z,39.00
2024-02-29T17:44:43.932Z,39.06
2024-02-29T17:47:10.857Z,39.06
2024-02-29T17:49:38.063Z,39.00
2024-02-29T17:52:05.055Z,38.81
2024-02-29T17:54:32.029Z,38.69
2024-02-29T17:56:59.180Z,38.50
2024-02-29T17:59:26.125Z,38.44
2024-02-29T18:01:53.186Z,38.44
2024-02-29T18:04:20.498Z,38.44
2024-02-29T18:06:49.188Z,38.00
2024-02-29T18:09:17.091Z,37.44
2024-02-29T18:11:44.084Z,38.19
2024-02-29T18:14:11.085Z,38.44
2024-02-29T18:16:38.090Z,38.56
2024-02-29T18:19:05.142Z,38.69
2024-02-29T18:21:32.147Z,38.81
2024-02-29T18:23:59.121Z,39.00
2024-02-29T18:26:26.116Z,39.13
2024-02-29T18:28:53.107Z,39.25
2024-02-29T18:31:20.094Z,39.38
2024-02-29T18:33:47.063Z,39.44
2024-02-29T18:36:14.135Z,39.63
2024-02-29T18:38:41.060Z,39.75
2024-02-29T18:41:08.024Z,39.88
2024-02-29T18:43:35.009Z,39.94
2024-02-29T18:46:06.032Z,40.06
2024-02-29T18:48:34.221Z,40.19
2024-02-29T18:51:01.458Z,40.31
2024-02-29T18:53:28.485Z,40.31
2024-02-29T18:55:55.487Z,40.25
2024-02-29T18:58:22.514Z,40.19
2024-02-29T19:00:49.705Z,40.00
2024-02-29T19:03:16.746Z,39.81
2024-02-29T19:05:43.684Z,39.69
2024-02-29T19:08:10.737Z,39.50
2024-02-29T19:10:37.751Z,39.38
2024-02-29T19:13:04.773Z,39.19
2024-02-29T19:15:31.775Z,39.00
2024-02-29T19:17:58.834Z,38.94
2024-02-29T19:20:25.886Z,38.94
2024-02-29T19:22:52.898Z,38.94
2024-02-29T19:25:19.925Z,38.88
2024-02-29T19:27:46.970Z,38.88
2024-02-29T19:30:13.963Z,39.00
2024-02-29T19:32:41.017Z,39.13
2024-02-29T19:35:08.141Z,39.25
2024-02-29T19:37:35.118Z,39.38
2024-02-29T19:40:02.190Z,39.44
2024-02-29T19:42:29.257Z,39.50
2024-02-29T19:44:56.235Z,39.63
2024-02-29T19:47:23.200Z,39.69
2024-02-29T19:49:50.221Z,39.75
2024-02-29T19:52:17.213Z,39.88
2024-02-29T19:54:44.394Z,39.94
2024-02-29T19:57:11.377Z,40.06
2024-02-29T19:59:38.322Z,40.13
2024-02-29T20:02:05.346Z,40.13
2024-02-29T20:04:32.971Z,39.88
2024-02-29T20:06:59.992Z,39.50
2024-02-29T20:09:26.964Z,39.31
2024-02-29T20:11:55.286Z,39.00
2024-02-29T20:14:22.247Z,38.50
2024-02-29T20:16:49.201Z,38.06
2024-02-29T20:19:16.369Z,37.75
2024-02-29T20:21:43.536Z,37.56
2024-02-29T20:24:10.509Z,37.31
2024-02-29T20:26:37.452Z,37.06
2024-02-29T20:29:04.458Z,36.81
2024-02-29T20:31:31.412Z,36.56
2024-02-29T20:33:58.424Z,36.25
2024-02-29T20:36:25.406Z,36.00
2024-02-29T20:38:52.353Z,35.69
2024-02-29T20:41:19.297Z,35.38
2024-02-29T20:43:46.319Z,35.06
2024-02-29T20:46:13.286Z,34.75
2024-02-29T20:48:40.240Z,34.38
2024-02-29T20:51:07.238Z,34.00
2024-02-29T20:53:34.227Z,33.69
2024-02-29T20:56:01.185Z,33.38
2024-02-29T20:58:28.213Z,33.06
2024-02-29T21:00:55.301Z,32.75
2024-02-29T21:03:22.308Z,32.50
2024-02-29T21:05:49.309Z,32.25
2024-02-29T21:08:16.337Z,32.06
2024-02-29T21:10:43.357Z,31.88
2024-02-29T21:13:10.370Z,31.69
2024-02-29T21:15:37.415Z,31.50
2024-02-29T21:18:04.383Z,31.38
2024-02-29T21:20:31.339Z,31.19
2024-02-29T21:22:58.295Z,31.06
2024-02-29T21:25:25.396Z,30.94
2024-02-29T21:27:52.473Z,30.81
2024-02-29T21:30:19.480Z,30.69
2024-02-29T21:32:46.511Z,30.56
2024-02-29T21:35:13.535Z,30.44
2024-02-29T21:37:40.519Z,30.31
2024-02-29T21:40:07.522Z,30.19
2024-02-29T21:42:34.525Z,30.13
2024-02-29T21:45:01.512Z,30.00
2024-02-29T21:47:28.669Z,29.88
2024-02-29T21:49:55.661Z,29.81
2024-02-29T21:52:22.769Z,29.69
2024-02-29T21:54:49.805Z,29.63
2024-02-29T21:57:16.812Z,29.56
2024-02-29T21:59:43.737Z,29.50
2024-02-29T22:02:10.953Z,29.44
2024-02-29T22:04:37.994Z,29.38
2024-02-29T22:07:04.974Z,29.31
2024-02-29T22:09:31.948Z,29.25
2024-02-29T22:11:58.908Z,29.19
2024-02-29T22:14:25.884Z,29.19
2024-02-29T22:16:52.900Z,29.13
2024-02-29T22:19:19.967Z,29.06
2024-02-29T22:21:47.078Z,28.94
2024-02-29T22:24:16.767Z,28.88
2024-02-29T22:26:44.020Z,28.75
2024-02-29T22:29:11.004Z,28.69
2024-02-29T22:31:38.008Z,28.56
2024-02-29T22:34:05.023Z,28.44
2024-02-29T22:36:32.054Z,28.31
2024-02-29T22:38:59.016Z,28.19
2024-02-29T22:41:25.935Z,28.06
2024-02-29T22:43:52.877Z,27.88
2024-02-29T22:46:19.944Z,27.81
2024-02-29T22:48:46.990Z,27.69
2024-02-29T22:51:14.003Z,27.56
2024-02-29T22:53:41.063Z,27.44
2024-02-29T22:56:07.995Z,27.38
2024-02-29T22:58:34.990Z,27.25
2024-02-29T23:01:02.177Z,27.13
2024-02-29T23:03:29.159Z,27.06
2024-02-29T23:05:56.132Z,27.00
2024-02-29T23:08:23.175Z,26.88
2024-02-29T23:10:50.155Z,26.81
2024-02-29T23:13:17.124Z,26.75
2024-02-29T23:15:44.163Z,26.69
2024-02-29T23:18:11.136Z,26.56
2024-02-29T23:20:38.120Z,26.56
2024-02-29T23:23:05.566Z,26.50
2024-02-29T23:25:32.703Z,26.44
2024-02-29T23:27:59.796Z,26.38
2024-02-29T23:30:26.764Z,26.31
2024-02-29T23:32:53.786Z,26.31
2024-02-29T23:35:20.787Z,26.31
2024-02-29T23:37:47.802Z,26.25
2024-02-29T23:40:14.823Z,26.25
2024-02-29T23:42:41.915Z,26.25
2024-02-29T23:45:08.885Z,26.25
2024-02-29T23:47:35.925Z,26.19
2024-02-29T23:50:02.932Z,26.19
2024-02-29T23:52:29.999Z,26.19
2024-02-29T23:54:57.450Z,26.13
2024-02-29T23:57:24.494Z,26.13
2024-02-29T23:59:51.429Z,26.13
